sensor_id;sensor_type;location;lat;lon;timestamp;P1;durP1;ratioP1;P2;durP2;ratioP2
4642;SDS011;2334;48.710;9.622;2024-02-26T00:02:14;4.60;;;1.90;;
4642;SDS011;2334;48.710;9.622;2024-02-26T00:04:41;2.20;;;1.97;;
4642;SDS011;2334;48.710;9.622;2024-02-26T00:07:08;4.43;;;1.60;;
4642;SDS011;2334;48.710;9.622;2024-02-26T00:09:35;3.30;;;2.10;;
4642;SDS011;2334;48.710;9.622;2024-02-26T00:12:04;1.63;;;1.53;;
4642;SDS011;2334;48.710;9.622;2024-02-26T00:14:31;1.90;;;1.80;;
4642;SDS011;2334;48.710;9.622;2024-02-26T00:16:58;1.70;;;1.60;;
4642;SDS011;2334;48.710;9.622;2024-02-26T00:19:25;2.33;;;1.50;;
4642;SDS011;2334;48.710;9.622;2024-02-26T00:21:52;3.03;;;1.80;;
4642;SDS011;2334;48.710;9.622;2024-02-26T00:24:20;3.47;;;2.17;;
4642;SDS011;2334;48.710;9.622;2024-02-26T00:26:47;1.60;;;1.50;;
4642;SDS011;2334;48.710;9.622;2024-02-26T00:29:19;2.63;;;1.90;;
4642;SDS011;2334;48.710;9.622;2024-02-26T00:31:46;2.07;;;1.90;;
4642;SDS011;2334;48.710;9.622;2024-02-26T00:34:13;1.50;;;1.40;;
4642;SDS011;2334;48.710;9.622;2024-02-26T00:36:40;1.20;;;1.20;;
4642;SDS011;2334;48.710;9.622;2024-02-26T00:39:07;2.43;;;1.43;;
4642;SDS011;2334;48.710;9.622;2024-02-26T00:41:37;1.63;;;1.53;;
4642;SDS011;2334;48.710;9.622;2024-02-26T00:44:05;3.00;;;1.57;;
4642;SDS011;2334;48.710;9.622;2024-02-26T00:46:32;3.47;;;1.43;;
4642;SDS011;2334;48.710;9.622;2024-02-26T00:48:59;1.90;;;1.17;;
4642;SDS011;2334;48.710;9.622;2024-02-26T00:51:26;1.80;;;1.47;;
4642;SDS011;2334;48.710;9.622;2024-02-26T00:53:53;1.63;;;1.50;;
4642;SDS011;2334;48.710;9.622;2024-02-26T00:56:21;2.50;;;1.40;;
4642;SDS011;2334;48.710;9.622;2024-02-26T00:58:48;2.13;;;1.93;;
4642;SDS011;2334;48.710;9.622;2024-02-26T01:01:16;1.70;;;1.60;;
4642;SDS011;2334;48.710;9.622;2024-02-26T01:03:44;2.50;;;1.60;;
4642;SDS011;2334;48.710;9.622;2024-02-26T01:06:11;1.77;;;1.50;;
4642;SDS011;2334;48.710;9.622;2024-02-26T01:08:38;5.40;;;1.30;;
4642;SDS011;2334;48.710;9.622;2024-02-26T01:11:05;1.50;;;1.40;;
4642;SDS011;2334;48.710;9.622;2024-02-26T01:13:32;2.40;;;1.17;;
4642;SDS011;2334;48.710;9.622;2024-02-26T01:15:59;2.47;;;1.40;;
4642;SDS011;2334;48.710;9.622;2024-02-26T01:18:26;2.17;;;1.63;;
4642;SDS011;2334;48.710;9.622;2024-02-26T01:20:55;3.03;;;1.77;;
4642;SDS011;2334;48.710;9.622;2024-02-26T01:23:22;1.80;;;1.53;;
4642;SDS011;2334;48.710;9.622;2024-02-26T01:25:48;3.83;;;2.43;;
4642;SDS011;2334;48.710;9.622;2024-02-26T01:28:15;2.50;;;1.60;;
4642;SDS011;2334;48.710;9.622;2024-02-26T01:30:42;1.90;;;1.67;;
4642;SDS011;2334;48.710;9.622;2024-02-26T01:33:09;4.47;;;2.27;;
4642;SDS011;2334;48.710;9.622;2024-02-26T01:35:36;3.63;;;2.40;;
4642;SDS011;2334;48.710;9.622;2024-02-26T01:38:05;2.90;;;1.87;;
4642;SDS011;2334;48.710;9.622;2024-02-26T01:40:31;5.00;;;2.67;;
4642;SDS011;2334;48.710;9.622;2024-02-26T01:42:59;2.40;;;2.30;;
4642;SDS011;2334;48.710;9.622;2024-02-26T01:45:26;3.50;;;2.23;;
4642;SDS011;2334;48.710;9.622;2024-02-26T01:47:53;3.33;;;2.30;;
4642;SDS011;2334;48.710;9.622;2024-02-26T01:50:21;3.50;;;2.00;;
4642;SDS011;2334;48.710;9.622;2024-02-26T01:52:49;2.30;;;1.60;;
4642;SDS011;2334;48.710;9.622;2024-02-26T01:55:18;2.27;;;2.07;;
4642;SDS011;2334;48.710;9.622;2024-02-26T01:57:47;3.40;;;2.30;;
4642;SDS011;2334;48.710;9.622;2024-02-26T02:00:17;2.40;;;2.17;;
4642;SDS011;2334;48.710;9.622;2024-02-26T02:02:46;2.50;;;2.30;;
4642;SDS011;2334;48.710;9.622;2024-02-26T02:05:14;2.67;;;2.47;;
4642;SDS011;2334;48.710;9.622;2024-02-26T02:07:41;2.57;;;1.97;;
4642;SDS011;2334;48.710;9.622;2024-02-26T02:10:09;2.87;;;2.17;;
4642;SDS011;2334;48.710;9.622;2024-02-26T02:12:38;1.90;;;1.80;;
4642;SDS011;2334;48.710;9.622;2024-02-26T02:15:05;2.07;;;1.90;;
4642;SDS011;2334;48.710;9.622;2024-02-26T02:17:33;2.43;;;2.23;;
4642;SDS011;2334;48.710;9.622;2024-02-26T02:20:00;3.00;;;2.50;;
4642;SDS011;2334;48.710;9.622;2024-02-26T02:22:30;2.20;;;2.10;;
4642;SDS011;2334;48.710;9.622;2024-02-26T02:24:58;2.70;;;2.50;;
4642;SDS011;2334;48.710;9.622;2024-02-26T02:27:26;4.37;;;2.40;;
4642;SDS011;2334;48.710;9.622;2024-02-26T02:29:53;3.83;;;1.60;;
4642;SDS011;2334;48.710;9.622;2024-02-26T02:32:20;2.17;;;1.80;;
4642;SDS011;2334;48.710;9.622;2024-02-26T02:34:49;4.13;;;2.17;;
4642;SDS011;2334;48.710;9.622;2024-02-26T02:37:16;2.40;;;1.70;;
4642;SDS011;2334;48.710;9.622;2024-02-26T02:39:44;2.80;;;2.53;;
4642;SDS011;2334;48.710;9.622;2024-02-26T02:42:11;2.77;;;1.90;;
4642;SDS011;2334;48.710;9.622;2024-02-26T02:44:38;4.50;;;2.20;;
4642;SDS011;2334;48.710;9.622;2024-02-26T02:47:05;3.00;;;2.43;;
4642;SDS011;2334;48.710;9.622;2024-02-26T02:49:32;4.50;;;2.20;;
4642;SDS011;2334;48.710;9.622;2024-02-26T02:51:59;3.27;;;2.00;;
4642;SDS011;2334;48.710;9.622;2024-02-26T02:54:26;5.00;;;2.13;;
4642;SDS011;2334;48.710;9.622;2024-02-26T02:56:54;6.47;;;2.73;;
4642;SDS011;2334;48.710;9.622;2024-02-26T02:59:21;4.50;;;2.60;;
4642;SDS011;2334;48.710;9.622;2024-02-26T03:01:48;4.30;;;2.67;;
4642;SDS011;2334;48.710;9.622;2024-02-26T03:04:15;2.93;;;1.70;;
4642;SDS011;2334;48.710;9.622;2024-02-26T03:06:41;3.27;;;2.27;;
4642;SDS011;2334;48.710;9.622;2024-02-26T03:09:08;15.33;;;2.80;;
4642;SDS011;2334;48.710;9.622;2024-02-26T03:11:35;3.90;;;2.87;;
4642;SDS011;2334;48.710;9.622;2024-02-26T03:14:04;7.33;;;3.20;;
4642;SDS011;2334;48.710;9.622;2024-02-26T03:16:31;8.13;;;3.53;;
4642;SDS011;2334;48.710;9.622;2024-02-26T03:18:58;8.33;;;3.20;;
4642;SDS011;2334;48.710;9.622;2024-02-26T03:21:25;8.63;;;3.43;;
4642;SDS011;2334;48.710;9.622;2024-02-26T03:23:53;11.67;;;3.90;;
4642;SDS011;2334;48.710;9.622;2024-02-26T03:26:19;7.27;;;3.17;;
4642;SDS011;2334;48.710;9.622;2024-02-26T03:28:46;6.30;;;2.90;;
4642;SDS011;2334;48.710;9.622;2024-02-26T03:31:15;4.13;;;2.10;;
4642;SDS011;2334;48.710;9.622;2024-02-26T03:33:42;2.67;;;1.97;;
4642;SDS011;2334;48.710;9.622;2024-02-26T03:36:09;5.47;;;2.30;;
4642;SDS011;2334;48.710;9.622;2024-02-26T03:38:36;5.53;;;2.73;;
4642;SDS011;2334;48.710;9.622;2024-02-26T03:41:04;2.40;;;2.17;;
4642;SDS011;2334;48.710;9.622;2024-02-26T03:43:31;3.60;;;2.60;;
4642;SDS011;2334;48.710;9.622;2024-02-26T03:45:58;2.67;;;1.40;;
4642;SDS011;2334;48.710;9.622;2024-02-26T03:48:26;3.30;;;2.47;;
4642;SDS011;2334;48.710;9.622;2024-02-26T03:50:53;10.27;;;2.37;;
4642;SDS011;2334;48.710;9.622;2024-02-26T03:53:20;2.43;;;2.30;;
4642;SDS011;2334;48.710;9.622;2024-02-26T03:55:47;2.90;;;2.57;;
4642;SDS011;2334;48.710;9.622;2024-02-26T03:58:14;3.30;;;2.57;;
4642;SDS011;2334;48.710;9.622;2024-02-26T04:00:42;10.03;;;2.90;;
4642;SDS011;2334;48.710;9.622;2024-02-26T04:03:09;8.57;;;2.97;;
4642;SDS011;2334;48.710;9.622;2024-02-26T04:05:37;3.83;;;2.97;;
4642;SDS011;2334;48.710;9.622;2024-02-26T04:08:04;4.93;;;2.67;;
4642;SDS011;2334;48.710;9.622;2024-02-26T04:10:32;7.13;;;2.60;;
4642;SDS011;2334;48.710;9.622;2024-02-26T04:13:00;3.40;;;2.20;;
4642;SDS011;2334;48.710;9.622;2024-02-26T04:15:27;3.80;;;2.70;;
4642;SDS011;2334;48.710;9.622;2024-02-26T04:17:54;4.50;;;2.77;;
4642;SDS011;2334;48.710;9.622;2024-02-26T04:20:20;4.00;;;2.23;;
4642;SDS011;2334;48.710;9.622;2024-02-26T04:22:49;2.60;;;2.40;;
4642;SDS011;2334;48.710;9.622;2024-02-26T04:25:16;4.47;;;2.30;;
4642;SDS011;2334;48.710;9.622;2024-02-26T04:27:43;3.77;;;2.53;;
4642;SDS011;2334;48.710;9.622;2024-02-26T04:30:10;2.40;;;2.20;;
4642;SDS011;2334;48.710;9.622;2024-02-26T04:32:37;6.73;;;2.40;;
4642;SDS011;2334;48.710;9.622;2024-02-26T04:35:05;5.63;;;3.43;;
4642;SDS011;2334;48.710;9.622;2024-02-26T04:37:32;3.63;;;2.50;;
4642;SDS011;2334;48.710;9.622;2024-02-26T04:40:01;7.63;;;2.70;;
4642;SDS011;2334;48.710;9.622;2024-02-26T04:42:29;5.17;;;3.33;;
4642;SDS011;2334;48.710;9.622;2024-02-26T04:44:56;2.10;;;1.77;;
4642;SDS011;2334;48.710;9.622;2024-02-26T04:47:23;2.27;;;2.07;;
4642;SDS011;2334;48.710;9.622;2024-02-26T04:49:50;1.90;;;1.80;;
4642;SDS011;2334;48.710;9.622;2024-02-26T04:52:18;5.90;;;2.03;;
4642;SDS011;2334;48.710;9.622;2024-02-26T04:54:45;2.83;;;2.13;;
4642;SDS011;2334;48.710;9.622;2024-02-26T04:57:13;4.60;;;2.23;;
4642;SDS011;2334;48.710;9.622;2024-02-26T04:59:40;4.50;;;2.50;;
4642;SDS011;2334;48.710;9.622;2024-02-26T05:02:07;7.07;;;2.87;;
4642;SDS011;2334;48.710;9.622;2024-02-26T05:04:34;3.90;;;2.47;;
4642;SDS011;2334;48.710;9.622;2024-02-26T05:07:01;3.03;;;2.43;;
4642;SDS011;2334;48.710;9.622;2024-02-26T05:09:28;3.20;;;2.00;;
4642;SDS011;2334;48.710;9.622;2024-02-26T05:11:55;2.57;;;2.17;;
4642;SDS011;2334;48.710;9.622;2024-02-26T05:14:23;3.77;;;2.30;;
4642;SDS011;2334;48.710;9.622;2024-02-26T05:16:50;3.07;;;2.10;;
4642;SDS011;2334;48.710;9.622;2024-02-26T05:19:17;4.17;;;2.70;;
4642;SDS011;2334;48.710;9.622;2024-02-26T05:21:44;2.67;;;2.37;;
4642;SDS011;2334;48.710;9.622;2024-02-26T05:24:14;7.00;;;2.90;;
4642;SDS011;2334;48.710;9.622;2024-02-26T05:26:42;4.80;;;2.47;;
4642;SDS011;2334;48.710;9.622;2024-02-26T05:29:09;2.57;;;2.33;;
4642;SDS011;2334;48.710;9.622;2024-02-26T05:31:38;3.47;;;2.60;;
4642;SDS011;2334;48.710;9.622;2024-02-26T05:34:04;3.10;;;2.57;;
4642;SDS011;2334;48.710;9.622;2024-02-26T05:36:31;5.63;;;2.77;;
4642;SDS011;2334;48.710;9.622;2024-02-26T05:38:58;10.30;;;2.53;;
4642;SDS011;2334;48.710;9.622;2024-02-26T05:41:25;4.40;;;2.53;;
4642;SDS011;2334;48.710;9.622;2024-02-26T05:43:52;3.53;;;2.33;;
4642;SDS011;2334;48.710;9.622;2024-02-26T05:46:19;3.77;;;2.10;;
4642;SDS011;2334;48.710;9.622;2024-02-26T05:48:48;2.47;;;2.20;;
4642;SDS011;2334;48.710;9.622;2024-02-26T05:51:19;3.53;;;2.60;;
4642;SDS011;2334;48.710;9.622;2024-02-26T05:53:46;3.00;;;2.03;;
4642;SDS011;2334;48.710;9.622;2024-02-26T05:56:18;1.97;;;1.80;;
4642;SDS011;2334;48.710;9.622;2024-02-26T05:58:46;6.83;;;2.57;;
4642;SDS011;2334;48.710;9.622;2024-02-26T06:01:13;4.00;;;2.10;;
4642;SDS011;2334;48.710;9.622;2024-02-26T06:03:41;2.30;;;2.10;;
4642;SDS011;2334;48.710;9.622;2024-02-26T06:06:09;2.80;;;2.23;;
4642;SDS011;2334;48.710;9.622;2024-02-26T06:08:36;4.50;;;2.07;;
4642;SDS011;2334;48.710;9.622;2024-02-26T06:11:04;2.83;;;2.27;;
4642;SDS011;2334;48.710;9.622;2024-02-26T06:13:32;2.90;;;2.17;;
4642;SDS011;2334;48.710;9.622;2024-02-26T06:15:59;3.03;;;2.27;;
4642;SDS011;2334;48.710;9.622;2024-02-26T06:18:26;2.17;;;2.07;;
4642;SDS011;2334;48.710;9.622;2024-02-26T06:20:53;2.67;;;1.80;;
4642;SDS011;2334;48.710;9.622;2024-02-26T06:23:21;3.37;;;2.30;;
4642;SDS011;2334;48.710;9.622;2024-02-26T06:25:48;2.20;;;2.00;;
4642;SDS011;2334;48.710;9.622;2024-02-26T06:28:15;2.47;;;1.80;;
4642;SDS011;2334;48.710;9.622;2024-02-26T06:30:42;4.50;;;2.00;;
4642;SDS011;2334;48.710;9.622;2024-02-26T06:33:09;2.33;;;2.23;;
4642;SDS011;2334;48.710;9.622;2024-02-26T06:35:37;2.57;;;1.90;;
4642;SDS011;2334;48.710;9.622;2024-02-26T06:38:04;2.57;;;2.37;;
4642;SDS011;2334;48.710;9.622;2024-02-26T06:40:32;2.10;;;2.00;;
4642;SDS011;2334;48.710;9.622;2024-02-26T06:42:59;2.20;;;2.00;;
4642;SDS011;2334;48.710;9.622;2024-02-26T06:45:26;5.67;;;2.40;;
4642;SDS011;2334;48.710;9.622;2024-02-26T06:47:53;5.23;;;2.40;;
4642;SDS011;2334;48.710;9.622;2024-02-26T06:50:20;2.60;;;2.37;;
4642;SDS011;2334;48.710;9.622;2024-02-26T06:52:47;3.57;;;2.43;;
4642;SDS011;2334;48.710;9.622;2024-02-26T06:55:14;4.27;;;2.90;;
4642;SDS011;2334;48.710;9.622;2024-02-26T06:57:43;4.20;;;3.00;;
4642;SDS011;2334;48.710;9.622;2024-02-26T07:00:10;2.43;;;2.23;;
4642;SDS011;2334;48.710;9.622;2024-02-26T07:02:40;4.63;;;2.53;;
4642;SDS011;2334;48.710;9.622;2024-02-26T07:05:07;2.93;;;1.80;;
4642;SDS011;2334;48.710;9.622;2024-02-26T07:07:35;7.10;;;1.90;;
4642;SDS011;2334;48.710;9.622;2024-02-26T07:10:02;2.10;;;1.90;;
4642;SDS011;2334;48.710;9.622;2024-02-26T07:12:30;10.07;;;4.43;;
4642;SDS011;2334;48.710;9.622;2024-02-26T07:14:59;11.53;;;5.10;;
4642;SDS011;2334;48.710;9.622;2024-02-26T07:17:27;7.07;;;4.80;;
4642;SDS011;2334;48.710;9.622;2024-02-26T07:19:54;7.47;;;4.20;;
4642;SDS011;2334;48.710;9.622;2024-02-26T07:22:21;3.17;;;2.87;;
4642;SDS011;2334;48.710;9.622;2024-02-26T07:24:49;4.10;;;2.03;;
4642;SDS011;2334;48.710;9.622;2024-02-26T07:27:16;20.97;;;6.77;;
4642;SDS011;2334;48.710;9.622;2024-02-26T07:29:43;32.70;;;10.67;;
4642;SDS011;2334;48.710;9.622;2024-02-26T07:32:11;30.83;;;8.90;;
4642;SDS011;2334;48.710;9.622;2024-02-26T07:34:38;31.80;;;10.63;;
4642;SDS011;2334;48.710;9.622;2024-02-26T07:37:06;39.77;;;11.63;;
4642;SDS011;2334;48.710;9.622;2024-02-26T07:39:34;26.03;;;9.33;;
4642;SDS011;2334;48.710;9.622;2024-02-26T07:42:00;12.83;;;4.80;;
4642;SDS011;2334;48.710;9.622;2024-02-26T07:44:27;5.17;;;3.10;;
4642;SDS011;2334;48.710;9.622;2024-02-26T07:46:54;14.80;;;4.43;;
4642;SDS011;2334;48.710;9.622;2024-02-26T07:49:23;6.97;;;3.40;;
4642;SDS011;2334;48.710;9.622;2024-02-26T07:51:49;6.80;;;3.60;;
4642;SDS011;2334;48.710;9.622;2024-02-26T07:54:16;3.87;;;2.60;;
4642;SDS011;2334;48.710;9.622;2024-02-26T07:56:44;3.67;;;2.30;;
4642;SDS011;2334;48.710;9.622;2024-02-26T07:59:11;3.83;;;2.40;;
4642;SDS011;2334;48.710;9.622;2024-02-26T08:01:38;2.57;;;2.30;;
4642;SDS011;2334;48.710;9.622;2024-02-26T08:04:06;9.20;;;1.97;;
4642;SDS011;2334;48.710;9.622;2024-02-26T08:06:35;4.13;;;2.27;;
4642;SDS011;2334;48.710;9.622;2024-02-26T08:09:02;1.67;;;1.50;;
4642;SDS011;2334;48.710;9.622;2024-02-26T08:11:29;2.47;;;2.27;;
4642;SDS011;2334;48.710;9.622;2024-02-26T08:13:56;2.53;;;1.90;;
4642;SDS011;2334;48.710;9.622;2024-02-26T08:16:24;2.10;;;1.80;;
4642;SDS011;2334;48.710;9.622;2024-02-26T08:18:51;4.10;;;3.10;;
4642;SDS011;2334;48.710;9.622;2024-02-26T08:21:18;3.20;;;2.50;;
4642;SDS011;2334;48.710;9.622;2024-02-26T08:23:46;3.30;;;2.23;;
4642;SDS011;2334;48.710;9.622;2024-02-26T08:26:13;2.33;;;2.10;;
4642;SDS011;2334;48.710;9.622;2024-02-26T08:28:40;6.87;;;2.73;;
4642;SDS011;2334;48.710;9.622;2024-02-26T08:31:07;5.10;;;2.43;;
4642;SDS011;2334;48.710;9.622;2024-02-26T08:33:34;4.47;;;2.63;;
4642;SDS011;2334;48.710;9.622;2024-02-26T08:36:03;5.70;;;2.70;;
4642;SDS011;2334;48.710;9.622;2024-02-26T08:38:31;2.90;;;2.60;;
4642;SDS011;2334;48.710;9.622;2024-02-26T08:41:01;4.50;;;2.80;;
4642;SDS011;2334;48.710;9.622;2024-02-26T08:43:28;4.50;;;2.13;;
4642;SDS011;2334;48.710;9.622;2024-02-26T08:45:56;3.20;;;2.60;;
4642;SDS011;2334;48.710;9.622;2024-02-26T08:48:23;2.87;;;2.60;;
4642;SDS011;2334;48.710;9.622;2024-02-26T08:50:49;5.30;;;2.60;;
4642;SDS011;2334;48.710;9.622;2024-02-26T08:53:16;3.60;;;2.50;;
4642;SDS011;2334;48.710;9.622;2024-02-26T08:55:43;5.00;;;2.80;;
4642;SDS011;2334;48.710;9.622;2024-02-26T08:58:11;3.23;;;2.07;;
4642;SDS011;2334;48.710;9.622;2024-02-26T09:00:38;5.00;;;3.50;;
4642;SDS011;2334;48.710;9.622;2024-02-26T09:03:05;7.27;;;2.37;;
4642;SDS011;2334;48.710;9.622;2024-02-26T09:05:32;4.63;;;3.53;;
4642;SDS011;2334;48.710;9.622;2024-02-26T09:07:59;3.93;;;2.97;;
4642;SDS011;2334;48.710;9.622;2024-02-26T09:10:26;8.27;;;3.00;;
4642;SDS011;2334;48.710;9.622;2024-02-26T09:12:53;2.77;;;2.13;;
4642;SDS011;2334;48.710;9.622;2024-02-26T09:15:22;6.10;;;2.27;;
4642;SDS011;2334;48.710;9.622;2024-02-26T09:17:49;9.80;;;3.20;;
4642;SDS011;2334;48.710;9.622;2024-02-26T09:20:17;2.80;;;2.07;;
4642;SDS011;2334;48.710;9.622;2024-02-26T09:22:45;4.17;;;2.07;;
4642;SDS011;2334;48.710;9.622;2024-02-26T09:25:13;4.00;;;3.00;;
4642;SDS011;2334;48.710;9.622;2024-02-26T09:27:40;7.53;;;3.20;;
4642;SDS011;2334;48.710;9.622;2024-02-26T09:30:08;18.43;;;3.97;;
4642;SDS011;2334;48.710;9.622;2024-02-26T09:32:37;19.40;;;6.93;;
4642;SDS011;2334;48.710;9.622;2024-02-26T09:35:05;10.03;;;4.10;;
4642;SDS011;2334;48.710;9.622;2024-02-26T09:37:32;6.70;;;3.70;;
4642;SDS011;2334;48.710;9.622;2024-02-26T09:40:01;7.93;;;3.70;;
4642;SDS011;2334;48.710;9.622;2024-02-26T09:42:29;8.10;;;3.73;;
4642;SDS011;2334;48.710;9.622;2024-02-26T09:44:59;6.20;;;3.67;;
4642;SDS011;2334;48.710;9.622;2024-02-26T09:47:28;8.43;;;3.50;;
4642;SDS011;2334;48.710;9.622;2024-02-26T09:49:59;5.20;;;3.40;;
4642;SDS011;2334;48.710;9.622;2024-02-26T09:52:29;6.60;;;3.17;;
4642;SDS011;2334;48.710;9.622;2024-02-26T09:54:59;4.47;;;3.10;;
4642;SDS011;2334;48.710;9.622;2024-02-26T09:57:26;4.77;;;2.50;;
4642;SDS011;2334;48.710;9.622;2024-02-26T09:59:54;3.63;;;3.23;;
4642;SDS011;2334;48.710;9.622;2024-02-26T10:02:25;3.43;;;2.40;;
4642;SDS011;2334;48.710;9.622;2024-02-26T10:04:52;3.43;;;2.80;;
4642;SDS011;2334;48.710;9.622;2024-02-26T10:07:24;4.10;;;2.43;;
4642;SDS011;2334;48.710;9.622;2024-02-26T10:09:51;4.80;;;3.50;;
4642;SDS011;2334;48.710;9.622;2024-02-26T10:12:18;4.30;;;2.93;;
4642;SDS011;2334;48.710;9.622;2024-02-26T10:14:46;4.40;;;2.33;;
4642;SDS011;2334;48.710;9.622;2024-02-26T10:17:13;4.57;;;3.03;;
4642;SDS011;2334;48.710;9.622;2024-02-26T10:19:40;4.37;;;2.90;;
4642;SDS011;2334;48.710;9.622;2024-02-26T10:22:07;9.83;;;2.73;;
4642;SDS011;2334;48.710;9.622;2024-02-26T10:24:35;3.50;;;2.20;;
4642;SDS011;2334;48.710;9.622;2024-02-26T10:27:03;3.20;;;2.50;;
4642;SDS011;2334;48.710;9.622;2024-02-26T10:29:31;5.70;;;2.57;;
4642;SDS011;2334;48.710;9.622;2024-02-26T10:31:58;5.63;;;2.47;;
4642;SDS011;2334;48.710;9.622;2024-02-26T10:34:25;4.60;;;2.53;;
4642;SDS011;2334;48.710;9.622;2024-02-26T10:36:54;4.13;;;2.27;;
4642;SDS011;2334;48.710;9.622;2024-02-26T10:39:21;3.57;;;2.53;;
4642;SDS011;2334;48.710;9.622;2024-02-26T10:41:49;4.33;;;2.70;;
4642;SDS011;2334;48.710;9.622;2024-02-26T10:44:16;3.47;;;2.27;;
4642;SDS011;2334;48.710;9.622;2024-02-26T10:46:44;4.70;;;2.40;;
4642;SDS011;2334;48.710;9.622;2024-02-26T10:49:14;3.03;;;2.57;;
4642;SDS011;2334;48.710;9.622;2024-02-26T10:51:43;5.13;;;3.77;;
4642;SDS011;2334;48.710;9.622;2024-02-26T10:54:12;3.40;;;2.63;;
4642;SDS011;2334;48.710;9.622;2024-02-26T10:56:42;5.50;;;2.33;;
4642;SDS011;2334;48.710;9.622;2024-02-26T10:59:10;3.13;;;2.60;;
4642;SDS011;2334;48.710;9.622;2024-02-26T11:01:38;2.83;;;2.53;;
4642;SDS011;2334;48.710;9.622;2024-02-26T11:04:09;2.93;;;1.97;;
4642;SDS011;2334;48.710;9.622;2024-02-26T11:06:37;4.30;;;2.07;;
4642;SDS011;2334;48.710;9.622;2024-02-26T11:09:04;3.80;;;2.20;;
4642;SDS011;2334;48.710;9.622;2024-02-26T11:11:37;6.53;;;3.07;;
4642;SDS011;2334;48.710;9.622;2024-02-26T11:14:05;1.93;;;1.53;;
4642;SDS011;2334;48.710;9.622;2024-02-26T11:16:35;5.03;;;1.87;;
4642;SDS011;2334;48.710;9.622;2024-02-26T11:19:05;1.60;;;1.50;;
4642;SDS011;2334;48.710;9.622;2024-02-26T11:21:35;2.63;;;1.73;;
4642;SDS011;2334;48.710;9.622;2024-02-26T11:24:06;1.63;;;1.53;;
4642;SDS011;2334;48.710;9.622;2024-02-26T11:26:36;3.93;;;1.50;;
4642;SDS011;2334;48.710;9.622;2024-02-26T11:29:10;2.07;;;1.40;;
4642;SDS011;2334;48.710;9.622;2024-02-26T11:31:41;1.87;;;1.70;;
4642;SDS011;2334;48.710;9.622;2024-02-26T11:34:08;2.23;;;1.30;;
4642;SDS011;2334;48.710;9.622;2024-02-26T11:36:37;1.67;;;1.57;;
4642;SDS011;2334;48.710;9.622;2024-02-26T11:39:04;1.67;;;1.57;;
4642;SDS011;2334;48.710;9.622;2024-02-26T11:41:32;2.87;;;1.60;;
4642;SDS011;2334;48.710;9.622;2024-02-26T11:44:00;3.47;;;1.87;;
4642;SDS011;2334;48.710;9.622;2024-02-26T11:46:30;2.30;;;1.50;;
4642;SDS011;2334;48.710;9.622;2024-02-26T11:48:59;2.13;;;1.63;;
4642;SDS011;2334;48.710;9.622;2024-02-26T11:51:27;2.90;;;1.90;;
4642;SDS011;2334;48.710;9.622;2024-02-26T11:53:58;3.43;;;1.73;;
4642;SDS011;2334;48.710;9.622;2024-02-26T11:56:25;2.43;;;2.10;;
4642;SDS011;2334;48.710;9.622;2024-02-26T11:58:59;5.70;;;2.57;;
4642;SDS011;2334;48.710;9.622;2024-02-26T12:01:40;1.90;;;1.77;;
4642;SDS011;2334;48.710;9.622;2024-02-26T12:04:16;2.60;;;2.33;;
4642;SDS011;2334;48.710;9.622;2024-02-26T12:06:45;2.90;;;1.83;;
4642;SDS011;2334;48.710;9.622;2024-02-26T12:09:32;4.53;;;1.53;;
4642;SDS011;2334;48.710;9.622;2024-02-26T12:12:01;4.60;;;1.93;;
4642;SDS011;2334;48.710;9.622;2024-02-26T12:14:29;2.10;;;1.90;;
4642;SDS011;2334;48.710;9.622;2024-02-26T12:16:58;3.80;;;2.30;;
4642;SDS011;2334;48.710;9.622;2024-02-26T12:19:28;4.33;;;1.67;;
4642;SDS011;2334;48.710;9.622;2024-02-26T12:21:55;3.83;;;2.10;;
4642;SDS011;2334;48.710;9.622;2024-02-26T12:24:22;2.07;;;1.93;;
4642;SDS011;2334;48.710;9.622;2024-02-26T12:26:48;1.70;;;1.60;;
4642;SDS011;2334;48.710;9.622;2024-02-26T12:29:15;3.00;;;2.20;;
4642;SDS011;2334;48.710;9.622;2024-02-26T12:31:42;2.00;;;1.60;;
4642;SDS011;2334;48.710;9.622;2024-02-26T12:34:10;6.83;;;1.70;;
4642;SDS011;2334;48.710;9.622;2024-02-26T12:36:38;2.23;;;1.53;;
4642;SDS011;2334;48.710;9.622;2024-02-26T12:39:05;1.33;;;1.23;;
4642;SDS011;2334;48.710;9.622;2024-02-26T12:41:34;3.40;;;1.67;;
4642;SDS011;2334;48.710;9.622;2024-02-26T12:44:01;1.93;;;1.30;;
4642;SDS011;2334;48.710;9.622;2024-02-26T12:46:28;4.70;;;2.03;;
4642;SDS011;2334;48.710;9.622;2024-02-26T12:48:56;2.10;;;1.80;;
4642;SDS011;2334;48.710;9.622;2024-02-26T12:51:24;1.60;;;1.50;;
4642;SDS011;2334;48.710;9.622;2024-02-26T12:53:53;3.57;;;2.17;;
4642;SDS011;2334;48.710;9.622;2024-02-26T12:56:21;1.53;;;1.43;;
4642;SDS011;2334;48.710;9.622;2024-02-26T12:58:49;4.73;;;1.40;;
4642;SDS011;2334;48.710;9.622;2024-02-26T13:01:17;3.43;;;2.03;;
4642;SDS011;2334;48.710;9.622;2024-02-26T13:03:47;2.73;;;1.77;;
4642;SDS011;2334;48.710;9.622;2024-02-26T13:06:16;4.93;;;1.80;;
4642;SDS011;2334;48.710;9.622;2024-02-26T13:08:43;2.23;;;1.87;;
4642;SDS011;2334;48.710;9.622;2024-02-26T13:11:11;1.63;;;1.53;;
4642;SDS011;2334;48.710;9.622;2024-02-26T13:13:38;5.27;;;1.90;;
4642;SDS011;2334;48.710;9.622;2024-02-26T13:16:10;2.23;;;1.73;;
4642;SDS011;2334;48.710;9.622;2024-02-26T13:18:41;3.53;;;1.80;;
4642;SDS011;2334;48.710;9.622;2024-02-26T13:21:09;1.80;;;1.70;;
4642;SDS011;2334;48.710;9.622;2024-02-26T13:23:37;2.43;;;1.60;;
4642;SDS011;2334;48.710;9.622;2024-02-26T13:26:05;3.27;;;1.80;;
4642;SDS011;2334;48.710;9.622;2024-02-26T13:28:34;4.23;;;1.73;;
4642;SDS011;2334;48.710;9.622;2024-02-26T13:31:01;3.00;;;2.00;;
4642;SDS011;2334;48.710;9.622;2024-02-26T13:33:30;4.97;;;1.70;;
4642;SDS011;2334;48.710;9.622;2024-02-26T13:35:57;3.40;;;1.67;;
4642;SDS011;2334;48.710;9.622;2024-02-26T13:38:25;4.67;;;2.40;;
4642;SDS011;2334;48.710;9.622;2024-02-26T13:40:52;5.30;;;2.17;;
4642;SDS011;2334;48.710;9.622;2024-02-26T13:43:20;1.67;;;1.53;;
4642;SDS011;2334;48.710;9.622;2024-02-26T13:45:48;2.33;;;1.93;;
4642;SDS011;2334;48.710;9.622;2024-02-26T13:48:15;3.10;;;2.13;;
4642;SDS011;2334;48.710;9.622;2024-02-26T13:50:43;2.07;;;1.87;;
4642;SDS011;2334;48.710;9.622;2024-02-26T13:53:11;2.27;;;1.90;;
4642;SDS011;2334;48.710;9.622;2024-02-26T13:55:39;2.60;;;2.37;;
4642;SDS011;2334;48.710;9.622;2024-02-26T13:58:07;2.57;;;1.70;;
4642;SDS011;2334;48.710;9.622;2024-02-26T14:00:37;2.40;;;2.20;;
4642;SDS011;2334;48.710;9.622;2024-02-26T14:03:05;3.80;;;1.90;;
4642;SDS011;2334;48.710;9.622;2024-02-26T14:05:32;5.47;;;2.30;;
4642;SDS011;2334;48.710;9.622;2024-02-26T14:07:59;3.83;;;2.20;;
4642;SDS011;2334;48.710;9.622;2024-02-26T14:10:26;2.00;;;1.90;;
4642;SDS011;2334;48.710;9.622;2024-02-26T14:12:53;2.17;;;1.97;;
4642;SDS011;2334;48.710;9.622;2024-02-26T14:15:20;3.67;;;2.10;;
4642;SDS011;2334;48.710;9.622;2024-02-26T14:17:49;8.50;;;5.30;;
4642;SDS011;2334;48.710;9.622;2024-02-26T14:20:21;26.63;;;9.67;;
4642;SDS011;2334;48.710;9.622;2024-02-26T14:22:49;21.00;;;9.27;;
4642;SDS011;2334;48.710;9.622;2024-02-26T14:25:16;21.10;;;10.30;;
4642;SDS011;2334;48.710;9.622;2024-02-26T14:27:43;8.03;;;5.13;;
4642;SDS011;2334;48.710;9.622;2024-02-26T14:30:11;12.33;;;3.53;;
4642;SDS011;2334;48.710;9.622;2024-02-26T14:32:39;3.33;;;2.60;;
4642;SDS011;2334;48.710;9.622;2024-02-26T14:35:06;8.23;;;3.80;;
4642;SDS011;2334;48.710;9.622;2024-02-26T14:37:35;8.80;;;4.53;;
4642;SDS011;2334;48.710;9.622;2024-02-26T14:40:02;7.43;;;4.47;;
4642;SDS011;2334;48.710;9.622;2024-02-26T14:42:30;5.50;;;3.73;;
4642;SDS011;2334;48.710;9.622;2024-02-26T14:44:57;3.77;;;2.93;;
4642;SDS011;2334;48.710;9.622;2024-02-26T14:47:24;5.40;;;2.60;;
4642;SDS011;2334;48.710;9.622;2024-02-26T14:49:54;6.23;;;3.53;;
4642;SDS011;2334;48.710;9.622;2024-02-26T14:52:22;14.37;;;2.97;;
4642;SDS011;2334;48.710;9.622;2024-02-26T14:54:50;4.33;;;2.80;;
4642;SDS011;2334;48.710;9.622;2024-02-26T14:57:18;3.90;;;2.60;;
4642;SDS011;2334;48.710;9.622;2024-02-26T14:59:45;6.47;;;3.50;;
4642;SDS011;2334;48.710;9.622;2024-02-26T15:02:12;2.93;;;2.63;;
4642;SDS011;2334;48.710;9.622;2024-02-26T15:04:41;5.53;;;3.60;;
4642;SDS011;2334;48.710;9.622;2024-02-26T15:07:07;6.40;;;3.57;;
4642;SDS011;2334;48.710;9.622;2024-02-26T15:09:35;12.30;;;3.20;;
4642;SDS011;2334;48.710;9.622;2024-02-26T15:12:04;5.73;;;2.93;;
4642;SDS011;2334;48.710;9.622;2024-02-26T15:14:33;4.10;;;2.60;;
4642;SDS011;2334;48.710;9.622;2024-02-26T15:17:00;6.37;;;3.33;;
4642;SDS011;2334;48.710;9.622;2024-02-26T15:19:28;3.53;;;3.10;;